Watton, MI (49970)

4:46 AM EST on December 25, 2014 (GMT -0500)
Kings Land O'Lakes | Change Station
CLOSE
Current Station
Airport
Location: Land O' Lakes,
Elevation: 1706 ft
Nearby Weather Stations

Elev 1706 ft 46.15 °N, 89.21 °W | Updated 11 minutes ago

Overcast
Overcast
31 °F
Feels Like 23 °F
N
9
Wind Variable Wind from West

Today
High -- | Low -- °F
--% Chance of Precip.
Yesterday
High -- | Low -- °F
Precip. -- in
8:37 AM 5:12 PM
Waxing Crescent, 15% visible
Pressure 29.53 in
Visibility 10.0 miles
Clouds Overcast 700 ft
Windchill 23 °F
Dew Point 30 °F
Humidity 95%
Rainfall 0.00 in
Snow Depth Not available.
UV 0 out of 12
Pollen .10 out of 12
Air Quality Not available.
Flu Activity Not available.
METAR KLNL 250935Z AUTO 26008KT 10SM OVC007 M01/M01 A2953 RMK AO2 T10061013

More Conditions Fewer Conditions

Pressure 29.53 in
Visibility 10.0 miles
Clouds Overcast 700 ft
Windchill 23 °F
Dew Point 30 °F
Humidity 95%
Rainfall 0.00 in
Snow Depth Not available.
UV 0 out of 12
Pollen .10 out of 12
Air Quality Not available.
Flu Activity Not available.
METAR KLNL 250935Z AUTO 26008KT 10SM OVC007 M01/M01 A2953 RMK AO2 T10061013

More Conditions Fewer Conditions

10-Day Weather Forecast

Almanac

Astronomy

Dec. 25, 2014 Rise Set
Actual Time
Civil Twilight
Nautical Twilight
Astronomical Twilight
Moon
Length of Visible Light
Length of Day
Tomorrow will be .
, % of the Moon is Illuminated

Today's Extremes

State Highs State Lows

Community

WunderPhotos

Upload Photos

1,780,251 photos uploaded!

WunderBlogs® & News

Nearby

Air Quality

  Air Quality AQ Index Pollutant
Not available.

Snow Depth

Station Depth Elevation

Earthquake Activity

City Distance Mag. Time & Date
Minimum magnitude displayed is 2.5.

Coastal Water Temperatures

Place Temperature

Nearby Weather Stations